X  Chiuso Dati meteorologici dell'aviazione (METAR)     EDVE Braunschweig-Wolfsburg Airport
Temperatura
17°C Temperatura
10°C Punto di rugiada
64% Umidità



Vento
11 KM/O
7 MPH
3 M/S
6 KTS



310°
NO
Condizioni attuali

Parzialmente nuvoloso Parzialmente nuvoloso
Pressione 1015.92 (hPa) - 30 (inHg)
Visibilità 6.2 (miglio) - 10 (km)
Aeroporto
Codice-Aeroporto EDVE

Posizione: Braunschweig-Wolfsburg Airport
Distanza: 35 (km)

Metar:
EDVE 221020Z 31006KT 280V010 9999 FEW027 OVC031 17/10 Q1016

Ore: 22-06-2021 12:20 CEST